sensor_id;sensor_type;location;lat;lon;timestamp;temperature;humidity
79315;DHT22;68777;44.804;0.552;2023-04-03T00:01:31;11.83;70.89
79315;DHT22;68777;44.804;0.552;2023-04-03T00:03:57;11.82;71.01
79315;DHT22;68777;44.804;0.552;2023-04-03T00:06:23;11.78;71.07
79315;DHT22;68777;44.804;0.552;2023-04-03T00:08:50;11.76;71.05
79315;DHT22;68777;44.804;0.552;2023-04-03T00:11:16;11.76;71.05
79315;DHT22;68777;44.804;0.552;2023-04-03T00:13:42;11.83;71.11
79315;DHT22;68777;44.804;0.552;2023-04-03T00:16:09;11.75;71.20
79315;DHT22;68777;44.804;0.552;2023-04-03T00:18:35;11.80;70.90
79315;DHT22;68777;44.804;0.552;2023-04-03T00:21:01;11.79;70.93
79315;DHT22;68777;44.804;0.552;2023-04-03T00:23:27;11.78;70.97
79315;DHT22;68777;44.804;0.552;2023-04-03T00:25:53;11.80;71.19
79315;DHT22;68777;44.804;0.552;2023-04-03T00:28:19;11.85;70.92
79315;DHT22;68777;44.804;0.552;2023-04-03T00:30:45;11.93;70.85
79315;DHT22;68777;44.804;0.552;2023-04-03T00:33:12;11.87;70.90
79315;DHT22;68777;44.804;0.552;2023-04-03T00:35:38;11.85;70.84
79315;DHT22;68777;44.804;0.552;2023-04-03T00:38:03;11.85;71.08
79315;DHT22;68777;44.804;0.552;2023-04-03T00:40:34;11.86;70.86
79315;DHT22;68777;44.804;0.552;2023-04-03T00:43:00;11.89;70.79
79315;DHT22;68777;44.804;0.552;2023-04-03T00:45:37;12.02;70.40
79315;DHT22;68777;44.804;0.552;2023-04-03T00:48:05;12.04;70.33
79315;DHT22;68777;44.804;0.552;2023-04-03T00:50:35;11.97;70.57
79315;DHT22;68777;44.804;0.552;2023-04-03T00:53:02;12.07;70.26
79315;DHT22;68777;44.804;0.552;2023-04-03T00:55:29;11.96;70.59
79315;DHT22;68777;44.804;0.552;2023-04-03T00:57:55;11.89;70.42
79315;DHT22;68777;44.804;0.552;2023-04-03T01:00:23;12.04;70.30
79315;DHT22;68777;44.804;0.552;2023-04-03T01:02:50;11.94;70.19
79315;DHT22;68777;44.804;0.552;2023-04-03T01:05:17;11.94;69.97
79315;DHT22;68777;44.804;0.552;2023-04-03T01:07:43;11.89;70.14
79315;DHT22;68777;44.804;0.552;2023-04-03T01:10:11;11.93;69.88
79315;DHT22;68777;44.804;0.552;2023-04-03T01:12:40;11.76;70.34
79315;DHT22;68777;44.804;0.552;2023-04-03T01:25:43;12.09;69.25
79315;DHT22;68777;44.804;0.552;2023-04-03T01:28:14;12.03;69.62
79315;DHT22;68777;44.804;0.552;2023-04-03T01:31:17;11.99;69.23
79315;DHT22;68777;44.804;0.552;2023-04-03T01:33:45;12.00;69.57
79315;DHT22;68777;44.804;0.552;2023-04-03T01:36:17;12.03;69.27
79315;DHT22;68777;44.804;0.552;2023-04-03T01:38:43;11.90;69.49
79315;DHT22;68777;44.804;0.552;2023-04-03T01:41:08;11.86;69.69
79315;DHT22;68777;44.804;0.552;2023-04-03T01:43:34;11.92;69.53
79315;DHT22;68777;44.804;0.552;2023-04-03T01:45:59;11.97;69.60
79315;DHT22;68777;44.804;0.552;2023-04-03T01:48:25;12.07;69.47
79315;DHT22;68777;44.804;0.552;2023-04-03T01:50:50;12.04;69.45
79315;DHT22;68777;44.804;0.552;2023-04-03T01:53:15;12.00;69.25
79315;DHT22;68777;44.804;0.552;2023-04-03T01:55:41;12.03;69.17
79315;DHT22;68777;44.804;0.552;2023-04-03T01:58:06;12.02;69.28
79315;DHT22;68777;44.804;0.552;2023-04-03T02:00:32;11.94;69.39
79315;DHT22;68777;44.804;0.552;2023-04-03T02:02:57;11.89;69.39
79315;DHT22;68777;44.804;0.552;2023-04-03T02:05:25;11.83;69.74
79315;DHT22;68777;44.804;0.552;2023-04-03T02:07:51;11.82;69.76
79315;DHT22;68777;44.804;0.552;2023-04-03T02:10:16;11.72;70.15
79315;DHT22;68777;44.804;0.552;2023-04-03T02:12:41;11.73;70.13
79315;DHT22;68777;44.804;0.552;2023-04-03T02:15:07;11.72;69.90
79315;DHT22;68777;44.804;0.552;2023-04-03T02:17:32;11.63;69.94
79315;DHT22;68777;44.804;0.552;2023-04-03T02:19:58;11.72;70.27
79315;DHT22;68777;44.804;0.552;2023-04-03T02:22:23;11.83;70.08
79315;DHT22;68777;44.804;0.552;2023-04-03T02:24:48;11.72;70.02
79315;DHT22;68777;44.804;0.552;2023-04-03T02:27:14;11.65;70.05
79315;DHT22;68777;44.804;0.552;2023-04-03T02:29:40;11.61;70.41
79315;DHT22;68777;44.804;0.552;2023-04-03T02:32:05;11.69;70.34
79315;DHT22;68777;44.804;0.552;2023-04-03T02:34:31;11.73;69.97
79315;DHT22;68777;44.804;0.552;2023-04-03T02:36:56;11.68;69.94
79315;DHT22;68777;44.804;0.552;2023-04-03T02:39:21;11.66;70.14
79315;DHT22;68777;44.804;0.552;2023-04-03T02:41:47;11.63;70.14
79315;DHT22;68777;44.804;0.552;2023-04-03T02:44:12;11.59;70.21
79315;DHT22;68777;44.804;0.552;2023-04-03T02:46:38;11.68;70.32
79315;DHT22;68777;44.804;0.552;2023-04-03T02:49:03;11.65;70.17
79315;DHT22;68777;44.804;0.552;2023-04-03T02:51:28;11.57;69.90
79315;DHT22;68777;44.804;0.552;2023-04-03T02:53:54;11.54;70.35
79315;DHT22;68777;44.804;0.552;2023-04-03T02:56:20;11.57;70.36
79315;DHT22;68777;44.804;0.552;2023-04-03T02:58:45;11.58;70.26
79315;DHT22;68777;44.804;0.552;2023-04-03T03:01:11;11.55;70.33
79315;DHT22;68777;44.804;0.552;2023-04-03T03:03:37;11.41;70.51
79315;DHT22;68777;44.804;0.552;2023-04-03T03:06:14;11.55;70.64
79315;DHT22;68777;44.804;0.552;2023-04-03T03:08:40;11.51;70.48
79315;DHT22;68777;44.804;0.552;2023-04-03T03:11:05;11.55;70.50
79315;DHT22;68777;44.804;0.552;2023-04-03T03:13:31;11.55;70.41
79315;DHT22;68777;44.804;0.552;2023-04-03T03:15:57;11.45;70.69
79315;DHT22;68777;44.804;0.552;2023-04-03T03:18:23;11.35;70.82
79315;DHT22;68777;44.804;0.552;2023-04-03T03:20:52;11.35;71.00
79315;DHT22;68777;44.804;0.552;2023-04-03T03:23:20;11.34;70.82
79315;DHT22;68777;44.804;0.552;2023-04-03T03:25:45;11.42;70.89
79315;DHT22;68777;44.804;0.552;2023-04-03T03:28:11;11.39;70.66
79315;DHT22;68777;44.804;0.552;2023-04-03T03:30:37;11.48;70.52
79315;DHT22;68777;44.804;0.552;2023-04-03T03:33:02;11.39;70.67
79315;DHT22;68777;44.804;0.552;2023-04-03T03:35:28;11.32;70.71
79315;DHT22;68777;44.804;0.552;2023-04-03T03:37:53;11.42;71.01
79315;DHT22;68777;44.804;0.552;2023-04-03T03:40:19;11.42;70.69
79315;DHT22;68777;44.804;0.552;2023-04-03T03:42:44;11.34;70.60
79315;DHT22;68777;44.804;0.552;2023-04-03T03:45:10;11.32;70.53
79315;DHT22;68777;44.804;0.552;2023-04-03T03:47:36;11.29;70.84
79315;DHT22;68777;44.804;0.552;2023-04-03T03:50:01;11.27;70.72
79315;DHT22;68777;44.804;0.552;2023-04-03T03:52:27;11.39;70.38
79315;DHT22;68777;44.804;0.552;2023-04-03T03:54:52;11.41;70.31
79315;DHT22;68777;44.804;0.552;2023-04-03T03:57:18;11.42;70.44
79315;DHT22;68777;44.804;0.552;2023-04-03T03:59:43;11.42;70.05
79315;DHT22;68777;44.804;0.552;2023-04-03T04:02:10;11.35;70.48
79315;DHT22;68777;44.804;0.552;2023-04-03T04:04:36;11.35;70.31
79315;DHT22;68777;44.804;0.552;2023-04-03T04:07:02;11.28;70.54
79315;DHT22;68777;44.804;0.552;2023-04-03T04:09:27;11.36;70.33
79315;DHT22;68777;44.804;0.552;2023-04-03T04:11:53;11.38;70.08
79315;DHT22;68777;44.804;0.552;2023-04-03T04:14:18;11.38;70.02
79315;DHT22;68777;44.804;0.552;2023-04-03T04:16:46;11.31;69.61
79315;DHT22;68777;44.804;0.552;2023-04-03T04:19:11;11.14;69.69
79315;DHT22;68777;44.804;0.552;2023-04-03T04:21:37;11.15;70.00
79315;DHT22;68777;44.804;0.552;2023-04-03T04:24:03;11.04;70.27
79315;DHT22;68777;44.804;0.552;2023-04-03T04:26:28;11.12;70.19
79315;DHT22;68777;44.804;0.552;2023-04-03T04:28:54;11.15;70.08
79315;DHT22;68777;44.804;0.552;2023-04-03T04:31:19;11.24;70.22
79315;DHT22;68777;44.804;0.552;2023-04-03T04:33:45;11.27;69.75
79315;DHT22;68777;44.804;0.552;2023-04-03T04:36:10;11.27;69.77
79315;DHT22;68777;44.804;0.552;2023-04-03T04:38:36;11.21;69.77
79315;DHT22;68777;44.804;0.552;2023-04-03T04:41:04;11.29;69.62
79315;DHT22;68777;44.804;0.552;2023-04-03T04:43:29;11.25;69.42
79315;DHT22;68777;44.804;0.552;2023-04-03T04:46:09;11.10;69.75
79315;DHT22;68777;44.804;0.552;2023-04-03T04:48:35;11.00;69.59
79315;DHT22;68777;44.804;0.552;2023-04-03T04:51:01;11.07;69.80
79315;DHT22;68777;44.804;0.552;2023-04-03T04:53:26;10.97;70.08
79315;DHT22;68777;44.804;0.552;2023-04-03T04:55:52;10.94;69.89
79315;DHT22;68777;44.804;0.552;2023-04-03T04:58:18;10.98;69.85
79315;DHT22;68777;44.804;0.552;2023-04-03T05:00:44;11.04;69.76
79315;DHT22;68777;44.804;0.552;2023-04-03T05:03:09;11.00;69.68
79315;DHT22;68777;44.804;0.552;2023-04-03T05:05:34;11.01;69.68
79315;DHT22;68777;44.804;0.552;2023-04-03T05:08:01;11.01;70.10
79315;DHT22;68777;44.804;0.552;2023-04-03T05:10:26;11.06;69.89
79315;DHT22;68777;44.804;0.552;2023-04-03T05:12:51;11.10;69.76
79315;DHT22;68777;44.804;0.552;2023-04-03T05:15:16;11.12;69.75
79315;DHT22;68777;44.804;0.552;2023-04-03T05:17:42;11.07;69.96
79315;DHT22;68777;44.804;0.552;2023-04-03T05:20:07;11.04;69.41
79315;DHT22;68777;44.804;0.552;2023-04-03T05:22:37;11.00;69.90
79315;DHT22;68777;44.804;0.552;2023-04-03T05:25:02;10.94;69.91
79315;DHT22;68777;44.804;0.552;2023-04-03T05:27:28;11.00;69.98
79315;DHT22;68777;44.804;0.552;2023-04-03T05:29:54;11.00;70.07
79315;DHT22;68777;44.804;0.552;2023-04-03T05:32:21;10.88;70.14
79315;DHT22;68777;44.804;0.552;2023-04-03T05:34:46;10.94;70.20
79315;DHT22;68777;44.804;0.552;2023-04-03T05:37:12;10.96;70.38
79315;DHT22;68777;44.804;0.552;2023-04-03T05:39:37;11.00;70.16
79315;DHT22;68777;44.804;0.552;2023-04-03T05:42:08;10.81;70.14
79315;DHT22;68777;44.804;0.552;2023-04-03T05:44:33;10.77;70.26
79315;DHT22;68777;44.804;0.552;2023-04-03T05:46:59;10.85;70.08
79315;DHT22;68777;44.804;0.552;2023-04-03T05:49:24;10.84;70.15
79315;DHT22;68777;44.804;0.552;2023-04-03T05:51:50;10.76;70.41
79315;DHT22;68777;44.804;0.552;2023-04-03T05:54:28;10.81;70.79
79315;DHT22;68777;44.804;0.552;2023-04-03T05:56:54;10.71;70.69
79315;DHT22;68777;44.804;0.552;2023-04-03T05:59:21;10.60;71.00
79315;DHT22;68777;44.804;0.552;2023-04-03T06:01:47;10.66;71.14
79315;DHT22;68777;44.804;0.552;2023-04-03T06:04:13;10.68;71.26
79315;DHT22;68777;44.804;0.552;2023-04-03T06:06:52;10.66;71.15
79315;DHT22;68777;44.804;0.552;2023-04-03T06:09:20;10.63;70.98
79315;DHT22;68777;44.804;0.552;2023-04-03T06:11:46;10.59;71.46
79315;DHT22;68777;44.804;0.552;2023-04-03T06:14:14;10.60;71.27
79315;DHT22;68777;44.804;0.552;2023-04-03T06:16:39;10.52;71.45
79315;DHT22;68777;44.804;0.552;2023-04-03T06:19:08;10.54;71.38
79315;DHT22;68777;44.804;0.552;2023-04-03T06:21:34;10.50;71.45
79315;DHT22;68777;44.804;0.552;2023-04-03T06:24:01;10.49;71.46
79315;DHT22;68777;44.804;0.552;2023-04-03T06:26:27;10.29;71.40
79315;DHT22;68777;44.804;0.552;2023-04-03T06:28:52;10.28;71.89
79315;DHT22;68777;44.804;0.552;2023-04-03T06:31:18;10.25;71.82
79315;DHT22;68777;44.804;0.552;2023-04-03T06:33:44;10.39;71.85
79315;DHT22;68777;44.804;0.552;2023-04-03T06:36:10;10.53;71.39
79315;DHT22;68777;44.804;0.552;2023-04-03T06:38:36;10.59;70.64
79315;DHT22;68777;44.804;0.552;2023-04-03T06:41:02;10.54;70.73
79315;DHT22;68777;44.804;0.552;2023-04-03T06:43:27;10.74;70.25
79315;DHT22;68777;44.804;0.552;2023-04-03T06:45:53;10.90;70.04
79315;DHT22;68777;44.804;0.552;2023-04-03T06:48:18;10.96;69.75
79315;DHT22;68777;44.804;0.552;2023-04-03T06:50:44;11.00;69.34
79315;DHT22;68777;44.804;0.552;2023-04-03T06:53:12;10.96;69.00
79315;DHT22;68777;44.804;0.552;2023-04-03T06:55:38;11.10;69.36
79315;DHT22;68777;44.804;0.552;2023-04-03T06:58:03;11.00;69.11
79315;DHT22;68777;44.804;0.552;2023-04-03T07:00:30;10.84;69.30
79315;DHT22;68777;44.804;0.552;2023-04-03T07:02:55;10.39;70.43
79315;DHT22;68777;44.804;0.552;2023-04-03T07:05:22;10.47;70.52
79315;DHT22;68777;44.804;0.552;2023-04-03T07:07:48;10.64;70.16
79315;DHT22;68777;44.804;0.552;2023-04-03T07:10:15;10.49;70.25
79315;DHT22;68777;44.804;0.552;2023-04-03T07:12:43;10.36;70.75
79315;DHT22;68777;44.804;0.552;2023-04-03T07:15:10;10.47;70.07
79315;DHT22;68777;44.804;0.552;2023-04-03T07:17:39;10.49;69.70
79315;DHT22;68777;44.804;0.552;2023-04-03T07:20:06;10.60;70.13
79315;DHT22;68777;44.804;0.552;2023-04-03T07:22:32;10.56;69.86
79315;DHT22;68777;44.804;0.552;2023-04-03T07:24:57;10.50;70.08
79315;DHT22;68777;44.804;0.552;2023-04-03T07:27:24;10.40;69.95
79315;DHT22;68777;44.804;0.552;2023-04-03T07:29:50;10.66;69.46
79315;DHT22;68777;44.804;0.552;2023-04-03T07:32:16;10.49;69.18
79315;DHT22;68777;44.804;0.552;2023-04-03T07:34:42;10.37;69.24
79315;DHT22;68777;44.804;0.552;2023-04-03T07:37:08;10.16;70.02
79315;DHT22;68777;44.804;0.552;2023-04-03T07:39:34;10.29;69.75
79315;DHT22;68777;44.804;0.552;2023-04-03T07:42:00;10.42;69.84
79315;DHT22;68777;44.804;0.552;2023-04-03T07:44:25;10.32;69.56
79315;DHT22;68777;44.804;0.552;2023-04-03T07:46:51;10.70;69.59
79315;DHT22;68777;44.804;0.552;2023-04-03T07:49:17;11.00;67.60
79315;DHT22;68777;44.804;0.552;2023-04-03T07:51:48;11.18;66.90
79315;DHT22;68777;44.804;0.552;2023-04-03T07:54:14;11.32;66.41
79315;DHT22;68777;44.804;0.552;2023-04-03T07:56:39;11.28;66.04
79315;DHT22;68777;44.804;0.552;2023-04-03T07:59:05;11.48;66.23
79315;DHT22;68777;44.804;0.552;2023-04-03T08:01:30;11.70;66.30
79315;DHT22;68777;44.804;0.552;2023-04-03T08:03:57;11.89;66.18
79315;DHT22;68777;44.804;0.552;2023-04-03T08:06:23;12.02;65.29
79315;DHT22;68777;44.804;0.552;2023-04-03T08:08:48;11.94;65.01
79315;DHT22;68777;44.804;0.552;2023-04-03T08:11:14;12.26;65.32
79315;DHT22;68777;44.804;0.552;2023-04-03T08:13:40;12.19;64.17
79315;DHT22;68777;44.804;0.552;2023-04-03T08:16:11;12.12;62.74
79315;DHT22;68777;44.804;0.552;2023-04-03T08:18:37;12.07;63.75
79315;DHT22;68777;44.804;0.552;2023-04-03T08:21:08;11.85;64.27
79315;DHT22;68777;44.804;0.552;2023-04-03T08:23:34;11.80;64.54
79315;DHT22;68777;44.804;0.552;2023-04-03T08:26:06;12.10;64.77
79315;DHT22;68777;44.804;0.552;2023-04-03T08:28:32;12.27;64.46
79315;DHT22;68777;44.804;0.552;2023-04-03T08:31:02;12.34;64.01
79315;DHT22;68777;44.804;0.552;2023-04-03T08:33:28;12.41;64.00
79315;DHT22;68777;44.804;0.552;2023-04-03T08:35:53;12.73;63.35
79315;DHT22;68777;44.804;0.552;2023-04-03T08:38:19;12.67;62.71
79315;DHT22;68777;44.804;0.552;2023-04-03T08:40:45;12.20;63.30
79315;DHT22;68777;44.804;0.552;2023-04-03T08:43:37;12.63;63.50
79315;DHT22;68777;44.804;0.552;2023-04-03T08:46:06;12.67;62.08
79315;DHT22;68777;44.804;0.552;2023-04-03T08:48:36;12.92;61.38
79315;DHT22;68777;44.804;0.552;2023-04-03T08:51:11;13.05;62.33
79315;DHT22;68777;44.804;0.552;2023-04-03T08:53:43;12.98;61.10
79315;DHT22;68777;44.804;0.552;2023-04-03T08:56:12;13.22;60.39
79315;DHT22;68777;44.804;0.552;2023-04-03T08:58:46;13.42;61.11
79315;DHT22;68777;44.804;0.552;2023-04-03T09:03:49;12.96;59.83
79315;DHT22;68777;44.804;0.552;2023-04-03T09:06:20;12.67;61.53
79315;DHT22;68777;44.804;0.552;2023-04-03T09:16:52;12.75;60.36
79315;DHT22;68777;44.804;0.552;2023-04-03T09:21:51;12.89;60.64
79315;DHT22;68777;44.804;0.552;2023-04-03T09:24:17;13.19;60.74
79315;DHT22;68777;44.804;0.552;2023-04-03T09:27:00;13.18;61.07
79315;DHT22;68777;44.804;0.552;2023-04-03T09:29:28;13.45;59.94
79315;DHT22;68777;44.804;0.552;2023-04-03T09:32:00;13.25;58.77
79315;DHT22;68777;44.804;0.552;2023-04-03T09:34:35;13.04;60.10
79315;DHT22;68777;44.804;0.552;2023-04-03T09:37:03;13.40;58.98
79315;DHT22;68777;44.804;0.552;2023-04-03T09:39:32;13.34;58.75
79315;DHT22;68777;44.804;0.552;2023-04-03T09:42:21;13.34;59.76
79315;DHT22;68777;44.804;0.552;2023-04-03T09:47:33;13.70;58.43
79315;DHT22;68777;44.804;0.552;2023-04-03T09:52:40;13.94;57.56
79315;DHT22;68777;44.804;0.552;2023-04-03T09:55:10;13.96;56.84
79315;DHT22;68777;44.804;0.552;2023-04-03T09:57:38;14.24;56.99
79315;DHT22;68777;44.804;0.552;2023-04-03T10:00:06;14.38;56.58
79315;DHT22;68777;44.804;0.552;2023-04-03T10:02:50;14.46;55.56
79315;DHT22;68777;44.804;0.552;2023-04-03T10:05:33;14.25;56.31
79315;DHT22;68777;44.804;0.552;2023-04-03T10:08:21;14.68;55.94
79315;DHT22;68777;44.804;0.552;2023-04-03T10:11:05;14.93;54.54
79315;DHT22;68777;44.804;0.552;2023-04-03T10:13:31;14.18;54.67
79315;DHT22;68777;44.804;0.552;2023-04-03T10:16:04;14.46;55.66
79315;DHT22;68777;44.804;0.552;2023-04-03T10:19:00;14.64;55.24
79315;DHT22;68777;44.804;0.552;2023-04-03T10:21:39;14.55;55.67
79315;DHT22;68777;44.804;0.552;2023-04-03T10:32:21;14.79;53.33
79315;DHT22;68777;44.804;0.552;2023-04-03T10:35:16;14.71;53.13
79315;DHT22;68777;44.804;0.552;2023-04-03T10:43:06;14.95;53.72
79315;DHT22;68777;44.804;0.552;2023-04-03T10:45:45;14.98;52.77
79315;DHT22;68777;44.804;0.552;2023-04-03T10:51:25;15.40;52.38
79315;DHT22;68777;44.804;0.552;2023-04-03T10:56:43;15.57;52.91
79315;DHT22;68777;44.804;0.552;2023-04-03T10:59:17;15.97;52.50
79315;DHT22;68777;44.804;0.552;2023-04-03T11:01:48;16.26;51.55
79315;DHT22;68777;44.804;0.552;2023-04-03T11:04:16;16.30;49.03
79315;DHT22;68777;44.804;0.552;2023-04-03T11:07:02;16.72;51.41
79315;DHT22;68777;44.804;0.552;2023-04-03T11:09:50;16.70;49.65
79315;DHT22;68777;44.804;0.552;2023-04-03T11:12:23;16.53;51.14
79315;DHT22;68777;44.804;0.552;2023-04-03T11:14:51;16.24;50.51
79315;DHT22;68777;44.804;0.552;2023-04-03T11:20:08;15.87;51.19
79315;DHT22;68777;44.804;0.552;2023-04-03T11:22:40;15.97;49.27
79315;DHT22;68777;44.804;0.552;2023-04-03T11:27:48;16.08;51.77
79315;DHT22;68777;44.804;0.552;2023-04-03T11:35:36;15.80;49.42
79315;DHT22;68777;44.804;0.552;2023-04-03T11:38:04;15.20;51.12
79315;DHT22;68777;44.804;0.552;2023-04-03T11:40:33;15.06;53.07
79315;DHT22;68777;44.804;0.552;2023-04-03T11:45:49;15.93;52.02
79315;DHT22;68777;44.804;0.552;2023-04-03T11:50:48;15.60;52.17
79315;DHT22;68777;44.804;0.552;2023-04-03T11:58:22;14.95;51.19
79315;DHT22;68777;44.804;0.552;2023-04-03T12:01:05;14.99;52.31
79315;DHT22;68777;44.804;0.552;2023-04-03T12:03:57;14.98;51.07
79315;DHT22;68777;44.804;0.552;2023-04-03T12:08:58;15.81;50.95
79315;DHT22;68777;44.804;0.552;2023-04-03T12:11:29;15.67;50.93
79315;DHT22;68777;44.804;0.552;2023-04-03T12:14:15;15.78;51.57
79315;DHT22;68777;44.804;0.552;2023-04-03T12:16:42;15.71;52.30
79315;DHT22;68777;44.804;0.552;2023-04-03T12:46:14;17.26;48.68
79315;DHT22;68777;44.804;0.552;2023-04-03T12:51:14;16.83;50.03
79315;DHT22;68777;44.804;0.552;2023-04-03T12:53:41;17.16;49.38
79315;DHT22;68777;44.804;0.552;2023-04-03T12:56:37;17.03;47.28
79315;DHT22;68777;44.804;0.552;2023-04-03T12:59:36;16.28;47.58
79315;DHT22;68777;44.804;0.552;2023-04-03T13:02:15;15.75;49.72
79315;DHT22;68777;44.804;0.552;2023-04-03T13:04:42;15.85;49.52
79315;DHT22;68777;44.804;0.552;2023-04-03T13:07:22;16.66;48.51
79315;DHT22;68777;44.804;0.552;2023-04-03T13:12:26;16.66;47.37
79315;DHT22;68777;44.804;0.552;2023-04-03T13:14:57;16.35;49.10
79315;DHT22;68777;44.804;0.552;2023-04-03T13:17:24;16.60;47.34
79315;DHT22;68777;44.804;0.552;2023-04-03T13:19:50;16.35;50.25
79315;DHT22;68777;44.804;0.552;2023-04-03T13:22:24;16.62;48.54
79315;DHT22;68777;44.804;0.552;2023-04-03T13:24:52;17.11;48.95
79315;DHT22;68777;44.804;0.552;2023-04-03T13:27:25;17.28;47.98
79315;DHT22;68777;44.804;0.552;2023-04-03T13:29:54;17.04;46.08
79315;DHT22;68777;44.804;0.552;2023-04-03T13:32:25;17.09;47.66
79315;DHT22;68777;44.804;0.552;2023-04-03T13:34:55;17.45;46.44
79315;DHT22;68777;44.804;0.552;2023-04-03T13:37:28;17.67;45.72
79315;DHT22;68777;44.804;0.552;2023-04-03T13:40:27;17.89;46.07
79315;DHT22;68777;44.804;0.552;2023-04-03T13:43:00;17.98;45.53
79315;DHT22;68777;44.804;0.552;2023-04-03T13:45:28;18.10;44.53
79315;DHT22;68777;44.804;0.552;2023-04-03T13:48:14;18.06;44.40
79315;DHT22;68777;44.804;0.552;2023-04-03T13:50:59;18.23;45.18
79315;DHT22;68777;44.804;0.552;2023-04-03T13:53:26;17.38;45.76
79315;DHT22;68777;44.804;0.552;2023-04-03T13:58:28;17.48;46.39
79315;DHT22;68777;44.804;0.552;2023-04-03T14:03:30;17.99;45.67
79315;DHT22;68777;44.804;0.552;2023-04-03T14:06:00;18.19;44.58
79315;DHT22;68777;44.804;0.552;2023-04-03T14:08:27;18.55;43.93
79315;DHT22;68777;44.804;0.552;2023-04-03T14:10:58;18.35;44.09
79315;DHT22;68777;44.804;0.552;2023-04-03T14:13:30;18.56;42.53
79315;DHT22;68777;44.804;0.552;2023-04-03T14:16:44;18.71;43.27
79315;DHT22;68777;44.804;0.552;2023-04-03T14:19:18;19.06;42.11
79315;DHT22;68777;44.804;0.552;2023-04-03T14:21:44;19.14;41.26
79315;DHT22;68777;44.804;0.552;2023-04-03T14:24:10;19.19;44.22
79315;DHT22;68777;44.804;0.552;2023-04-03T14:26:42;19.17;42.52
79315;DHT22;68777;44.804;0.552;2023-04-03T14:29:20;19.54;41.15
79315;DHT22;68777;44.804;0.552;2023-04-03T14:31:47;19.03;40.41
79315;DHT22;68777;44.804;0.552;2023-04-03T14:34:14;18.61;42.64
79315;DHT22;68777;44.804;0.552;2023-04-03T14:36:42;19.04;42.79
79315;DHT22;68777;44.804;0.552;2023-04-03T14:39:17;18.96;41.54
79315;DHT22;68777;44.804;0.552;2023-04-03T14:41:47;19.17;39.89
79315;DHT22;68777;44.804;0.552;2023-04-03T14:44:13;18.52;41.52
79315;DHT22;68777;44.804;0.552;2023-04-03T14:46:45;18.57;42.94
79315;DHT22;68777;44.804;0.552;2023-04-03T14:49:21;18.29;42.37
79315;DHT22;68777;44.804;0.552;2023-04-03T14:51:49;18.39;42.98
79315;DHT22;68777;44.804;0.552;2023-04-03T14:54:41;18.50;42.33
79315;DHT22;68777;44.804;0.552;2023-04-03T14:57:14;19.04;41.81
79315;DHT22;68777;44.804;0.552;2023-04-03T14:59:45;19.28;41.93
79315;DHT22;68777;44.804;0.552;2023-04-03T15:02:42;19.22;40.76
79315;DHT22;68777;44.804;0.552;2023-04-03T15:05:37;18.98;41.45
79315;DHT22;68777;44.804;0.552;2023-04-03T15:08:24;18.57;40.81
79315;DHT22;68777;44.804;0.552;2023-04-03T15:11:21;18.47;42.32
79315;DHT22;68777;44.804;0.552;2023-04-03T15:13:47;19.17;41.78
79315;DHT22;68777;44.804;0.552;2023-04-03T15:16:19;19.04;40.18
79315;DHT22;68777;44.804;0.552;2023-04-03T15:18:45;18.94;40.15
79315;DHT22;68777;44.804;0.552;2023-04-03T15:21:12;18.45;41.89
79315;DHT22;68777;44.804;0.552;2023-04-03T15:23:37;18.35;41.69
79315;DHT22;68777;44.804;0.552;2023-04-03T15:26:15;18.29;42.63
79315;DHT22;68777;44.804;0.552;2023-04-03T15:29:01;18.33;43.00
79315;DHT22;68777;44.804;0.552;2023-04-03T15:31:41;18.12;41.60
79315;DHT22;68777;44.804;0.552;2023-04-03T15:34:09;17.86;43.71
79315;DHT22;68777;44.804;0.552;2023-04-03T15:36:35;18.09;43.48
79315;DHT22;68777;44.804;0.552;2023-04-03T15:39:01;18.12;42.82
79315;DHT22;68777;44.804;0.552;2023-04-03T15:41:27;17.65;44.17
79315;DHT22;68777;44.804;0.552;2023-04-03T15:44:14;17.60;45.52
79315;DHT22;68777;44.804;0.552;2023-04-03T15:46:44;17.68;45.67
79315;DHT22;68777;44.804;0.552;2023-04-03T15:49:11;17.74;45.43
79315;DHT22;68777;44.804;0.552;2023-04-03T15:51:40;17.62;46.39
79315;DHT22;68777;44.804;0.552;2023-04-03T15:54:09;17.41;47.78
79315;DHT22;68777;44.804;0.552;2023-04-03T15:56:44;17.42;48.38
79315;DHT22;68777;44.804;0.552;2023-04-03T15:59:12;17.34;47.81
79315;DHT22;68777;44.804;0.552;2023-04-03T16:01:50;16.87;48.53
79315;DHT22;68777;44.804;0.552;2023-04-03T16:04:25;16.94;49.54
79315;DHT22;68777;44.804;0.552;2023-04-03T16:07:03;16.93;49.65
79315;DHT22;68777;44.804;0.552;2023-04-03T16:09:31;16.80;49.91
79315;DHT22;68777;44.804;0.552;2023-04-03T16:12:26;16.90;49.79
79315;DHT22;68777;44.804;0.552;2023-04-03T16:15:00;16.68;49.77
79315;DHT22;68777;44.804;0.552;2023-04-03T16:17:26;16.53;49.86
79315;DHT22;68777;44.804;0.552;2023-04-03T16:19:55;16.59;50.34
79315;DHT22;68777;44.804;0.552;2023-04-03T16:22:25;16.48;50.20
79315;DHT22;68777;44.804;0.552;2023-04-03T16:24:51;16.41;50.95
79315;DHT22;68777;44.804;0.552;2023-04-03T16:27:17;16.04;50.36
79315;DHT22;68777;44.804;0.552;2023-04-03T16:29:44;15.75;51.16
79315;DHT22;68777;44.804;0.552;2023-04-03T16:32:09;15.84;51.70
79315;DHT22;68777;44.804;0.552;2023-04-03T16:34:35;15.95;52.14
79315;DHT22;68777;44.804;0.552;2023-04-03T16:37:01;16.11;52.01
79315;DHT22;68777;44.804;0.552;2023-04-03T16:39:35;16.17;51.56
79315;DHT22;68777;44.804;0.552;2023-04-03T16:42:06;16.15;50.73
79315;DHT22;68777;44.804;0.552;2023-04-03T16:44:40;16.07;51.27
79315;DHT22;68777;44.804;0.552;2023-04-03T16:47:06;15.88;51.50
79315;DHT22;68777;44.804;0.552;2023-04-03T16:49:34;15.73;51.88
79315;DHT22;68777;44.804;0.552;2023-04-03T16:52:00;15.58;52.68
79315;DHT22;68777;44.804;0.552;2023-04-03T16:54:27;15.50;52.41
79315;DHT22;68777;44.804;0.552;2023-04-03T16:56:59;15.43;52.55
79315;DHT22;68777;44.804;0.552;2023-04-03T16:59:25;15.32;51.99
79315;DHT22;68777;44.804;0.552;2023-04-03T17:01:50;15.26;52.09
79315;DHT22;68777;44.804;0.552;2023-04-03T17:04:17;15.09;52.65
79315;DHT22;68777;44.804;0.552;2023-04-03T17:06:43;15.16;52.57
79315;DHT22;68777;44.804;0.552;2023-04-03T17:09:08;15.12;52.72
79315;DHT22;68777;44.804;0.552;2023-04-03T17:11:40;15.12;53.39
79315;DHT22;68777;44.804;0.552;2023-04-03T17:14:06;15.03;53.51
79315;DHT22;68777;44.804;0.552;2023-04-03T17:16:34;15.02;53.57
79315;DHT22;68777;44.804;0.552;2023-04-03T17:19:00;14.98;53.08
79315;DHT22;68777;44.804;0.552;2023-04-03T17:21:25;14.79;53.72
79315;DHT22;68777;44.804;0.552;2023-04-03T17:23:57;14.72;54.04
79315;DHT22;68777;44.804;0.552;2023-04-03T17:26:24;14.71;54.13
79315;DHT22;68777;44.804;0.552;2023-04-03T17:28:51;14.72;54.41
79315;DHT22;68777;44.804;0.552;2023-04-03T17:31:16;14.48;54.70
79315;DHT22;68777;44.804;0.552;2023-04-03T17:33:42;14.54;55.07